sensor_id;sensor_type;location;lat;lon;timestamp;P1;durP1;ratioP1;P2;durP2;ratioP2
19301;SDS011;9785;59.362;12.152;2022-11-18T00:00:50;0.20;;;0.20;;
19301;SDS011;9785;59.362;12.152;2022-11-18T00:03:18;0.27;;;0.27;;
19301;SDS011;9785;59.362;12.152;2022-11-18T00:05:55;0.10;;;0.10;;
19301;SDS011;9785;59.362;12.152;2022-11-18T00:08:24;0.20;;;0.20;;
19301;SDS011;9785;59.362;12.152;2022-11-18T00:10:52;0.20;;;0.20;;
19301;SDS011;9785;59.362;12.152;2022-11-18T00:13:21;0.50;;;0.20;;
19301;SDS011;9785;59.362;12.152;2022-11-18T00:16:19;0.10;;;0.10;;
19301;SDS011;9785;59.362;12.152;2022-11-18T00:18:47;0.20;;;0.20;;
19301;SDS011;9785;59.362;12.152;2022-11-18T00:21:17;0.40;;;0.40;;
19301;SDS011;9785;59.362;12.152;2022-11-18T00:23:47;0.07;;;0.07;;
19301;SDS011;9785;59.362;12.152;2022-11-18T00:26:15;0.20;;;0.20;;
19301;SDS011;9785;59.362;12.152;2022-11-18T00:28:44;0.17;;;0.17;;
19301;SDS011;9785;59.362;12.152;2022-11-18T00:31:12;0.77;;;0.30;;
19301;SDS011;9785;59.362;12.152;2022-11-18T00:33:41;0.20;;;0.20;;
19301;SDS011;9785;59.362;12.152;2022-11-18T00:36:10;0.20;;;0.20;;
19301;SDS011;9785;59.362;12.152;2022-11-18T00:38:40;0.30;;;0.30;;
19301;SDS011;9785;59.362;12.152;2022-11-18T00:41:10;0.20;;;0.20;;
19301;SDS011;9785;59.362;12.152;2022-11-18T00:43:39;0.20;;;0.20;;
19301;SDS011;9785;59.362;12.152;2022-11-18T00:46:08;0.20;;;0.20;;
19301;SDS011;9785;59.362;12.152;2022-11-18T00:48:37;0.10;;;0.10;;
19301;SDS011;9785;59.362;12.152;2022-11-18T00:51:06;0.33;;;0.33;;
19301;SDS011;9785;59.362;12.152;2022-11-18T00:53:35;0.10;;;0.10;;
19301;SDS011;9785;59.362;12.152;2022-11-18T00:56:05;0.13;;;0.13;;
19301;SDS011;9785;59.362;12.152;2022-11-18T00:58:34;0.20;;;0.20;;
19301;SDS011;9785;59.362;12.152;2022-11-18T01:01:03;0.20;;;0.20;;
19301;SDS011;9785;59.362;12.152;2022-11-18T01:03:32;0.20;;;0.20;;
19301;SDS011;9785;59.362;12.152;2022-11-18T01:06:00;1.30;;;0.30;;
19301;SDS011;9785;59.362;12.152;2022-11-18T01:08:29;0.53;;;0.30;;
19301;SDS011;9785;59.362;12.152;2022-11-18T01:10:57;0.10;;;0.10;;
19301;SDS011;9785;59.362;12.152;2022-11-18T01:13:49;0.30;;;0.30;;
19301;SDS011;9785;59.362;12.152;2022-11-18T01:16:17;0.73;;;0.20;;
19301;SDS011;9785;59.362;12.152;2022-11-18T01:18:45;0.20;;;0.20;;
19301;SDS011;9785;59.362;12.152;2022-11-18T01:21:14;0.20;;;0.20;;
19301;SDS011;9785;59.362;12.152;2022-11-18T01:23:43;0.20;;;0.20;;
19301;SDS011;9785;59.362;12.152;2022-11-18T01:26:12;0.20;;;0.20;;
19301;SDS011;9785;59.362;12.152;2022-11-18T01:28:41;0.20;;;0.20;;
19301;SDS011;9785;59.362;12.152;2022-11-18T01:31:12;0.30;;;0.30;;
19301;SDS011;9785;59.362;12.152;2022-11-18T01:33:41;0.13;;;0.13;;
19301;SDS011;9785;59.362;12.152;2022-11-18T01:36:16;0.30;;;0.30;;
19301;SDS011;9785;59.362;12.152;2022-11-18T01:38:45;0.30;;;0.30;;
19301;SDS011;9785;59.362;12.152;2022-11-18T01:41:14;0.20;;;0.20;;
19301;SDS011;9785;59.362;12.152;2022-11-18T01:43:46;0.30;;;0.30;;
19301;SDS011;9785;59.362;12.152;2022-11-18T01:46:17;0.30;;;0.30;;
19301;SDS011;9785;59.362;12.152;2022-11-18T01:48:45;0.20;;;0.20;;
19301;SDS011;9785;59.362;12.152;2022-11-18T01:51:18;0.20;;;0.20;;
19301;SDS011;9785;59.362;12.152;2022-11-18T01:53:49;0.60;;;0.20;;
19301;SDS011;9785;59.362;12.152;2022-11-18T01:56:19;0.20;;;0.20;;
19301;SDS011;9785;59.362;12.152;2022-11-18T01:58:51;0.30;;;0.30;;
19301;SDS011;9785;59.362;12.152;2022-11-18T02:01:23;0.23;;;0.23;;
19301;SDS011;9785;59.362;12.152;2022-11-18T02:03:51;0.13;;;0.13;;
19301;SDS011;9785;59.362;12.152;2022-11-18T02:06:20;0.20;;;0.20;;
19301;SDS011;9785;59.362;12.152;2022-11-18T02:08:48;0.10;;;0.10;;
19301;SDS011;9785;59.362;12.152;2022-11-18T02:11:17;0.17;;;0.17;;
19301;SDS011;9785;59.362;12.152;2022-11-18T02:14:05;0.40;;;0.40;;
19301;SDS011;9785;59.362;12.152;2022-11-18T02:16:38;0.10;;;0.10;;
19301;SDS011;9785;59.362;12.152;2022-11-18T02:19:13;0.10;;;0.10;;
19301;SDS011;9785;59.362;12.152;2022-11-18T02:21:45;0.20;;;0.20;;
19301;SDS011;9785;59.362;12.152;2022-11-18T02:24:25;0.27;;;0.27;;
19301;SDS011;9785;59.362;12.152;2022-11-18T02:29:52;0.10;;;0.10;;
19301;SDS011;9785;59.362;12.152;2022-11-18T02:32:23;0.00;;;0.00;;
19301;SDS011;9785;59.362;12.152;2022-11-18T02:34:54;0.13;;;0.13;;
19301;SDS011;9785;59.362;12.152;2022-11-18T02:37:28;0.20;;;0.20;;
19301;SDS011;9785;59.362;12.152;2022-11-18T02:39:58;0.20;;;0.20;;
19301;SDS011;9785;59.362;12.152;2022-11-18T02:42:28;0.13;;;0.13;;
19301;SDS011;9785;59.362;12.152;2022-11-18T02:45:01;0.13;;;0.13;;
19301;SDS011;9785;59.362;12.152;2022-11-18T02:47:31;0.20;;;0.20;;
19301;SDS011;9785;59.362;12.152;2022-11-18T02:50:02;1.03;;;0.20;;
19301;SDS011;9785;59.362;12.152;2022-11-18T02:52:31;0.20;;;0.20;;
19301;SDS011;9785;59.362;12.152;2022-11-18T02:55:00;0.20;;;0.20;;
19301;SDS011;9785;59.362;12.152;2022-11-18T02:57:30;0.20;;;0.20;;
19301;SDS011;9785;59.362;12.152;2022-11-18T03:00:02;0.20;;;0.20;;
19301;SDS011;9785;59.362;12.152;2022-11-18T03:02:38;0.30;;;0.30;;
19301;SDS011;9785;59.362;12.152;2022-11-18T03:05:07;0.30;;;0.30;;
19301;SDS011;9785;59.362;12.152;2022-11-18T03:07:37;0.30;;;0.30;;
19301;SDS011;9785;59.362;12.152;2022-11-18T03:10:07;0.40;;;0.40;;
19301;SDS011;9785;59.362;12.152;2022-11-18T03:12:38;0.23;;;0.23;;
19301;SDS011;9785;59.362;12.152;2022-11-18T03:15:13;0.20;;;0.20;;
19301;SDS011;9785;59.362;12.152;2022-11-18T03:17:45;0.33;;;0.33;;
19301;SDS011;9785;59.362;12.152;2022-11-18T03:20:17;0.20;;;0.20;;
19301;SDS011;9785;59.362;12.152;2022-11-18T03:22:49;0.20;;;0.20;;
19301;SDS011;9785;59.362;12.152;2022-11-18T03:25:22;0.20;;;0.20;;
19301;SDS011;9785;59.362;12.152;2022-11-18T03:27:55;0.40;;;0.40;;
19301;SDS011;9785;59.362;12.152;2022-11-18T03:30:26;0.87;;;0.30;;
19301;SDS011;9785;59.362;12.152;2022-11-18T03:32:57;0.50;;;0.50;;
19301;SDS011;9785;59.362;12.152;2022-11-18T03:35:28;0.40;;;0.40;;
19301;SDS011;9785;59.362;12.152;2022-11-18T03:37:59;0.30;;;0.30;;
19301;SDS011;9785;59.362;12.152;2022-11-18T03:40:29;0.40;;;0.40;;
19301;SDS011;9785;59.362;12.152;2022-11-18T03:42:59;0.20;;;0.20;;
19301;SDS011;9785;59.362;12.152;2022-11-18T03:45:33;0.30;;;0.30;;
19301;SDS011;9785;59.362;12.152;2022-11-18T03:48:03;0.53;;;0.40;;
19301;SDS011;9785;59.362;12.152;2022-11-18T03:50:37;0.40;;;0.17;;
19301;SDS011;9785;59.362;12.152;2022-11-18T03:53:06;0.30;;;0.30;;
19301;SDS011;9785;59.362;12.152;2022-11-18T03:55:36;0.37;;;0.23;;
19301;SDS011;9785;59.362;12.152;2022-11-18T03:58:08;0.30;;;0.30;;
19301;SDS011;9785;59.362;12.152;2022-11-18T04:00:39;0.50;;;0.30;;
19301;SDS011;9785;59.362;12.152;2022-11-18T04:03:09;0.27;;;0.27;;
19301;SDS011;9785;59.362;12.152;2022-11-18T04:05:38;0.27;;;0.27;;
19301;SDS011;9785;59.362;12.152;2022-11-18T04:08:08;1.13;;;0.30;;
19301;SDS011;9785;59.362;12.152;2022-11-18T04:10:39;0.67;;;0.50;;
19301;SDS011;9785;59.362;12.152;2022-11-18T04:13:10;0.30;;;0.13;;
19301;SDS011;9785;59.362;12.152;2022-11-18T04:15:41;0.20;;;0.20;;
19301;SDS011;9785;59.362;12.152;2022-11-18T04:18:10;0.20;;;0.20;;
19301;SDS011;9785;59.362;12.152;2022-11-18T04:20:39;0.37;;;0.37;;
19301;SDS011;9785;59.362;12.152;2022-11-18T04:23:07;0.30;;;0.30;;
19301;SDS011;9785;59.362;12.152;2022-11-18T04:25:36;0.40;;;0.40;;
19301;SDS011;9785;59.362;12.152;2022-11-18T04:28:04;0.20;;;0.20;;
19301;SDS011;9785;59.362;12.152;2022-11-18T04:30:33;0.20;;;0.20;;
19301;SDS011;9785;59.362;12.152;2022-11-18T04:33:03;0.30;;;0.30;;
19301;SDS011;9785;59.362;12.152;2022-11-18T04:35:32;0.67;;;0.57;;
19301;SDS011;9785;59.362;12.152;2022-11-18T04:38:00;0.20;;;0.20;;
19301;SDS011;9785;59.362;12.152;2022-11-18T04:40:30;0.33;;;0.33;;
19301;SDS011;9785;59.362;12.152;2022-11-18T04:42:58;0.30;;;0.30;;
19301;SDS011;9785;59.362;12.152;2022-11-18T04:45:27;0.30;;;0.30;;
19301;SDS011;9785;59.362;12.152;2022-11-18T04:47:56;0.20;;;0.20;;
19301;SDS011;9785;59.362;12.152;2022-11-18T04:50:30;1.27;;;0.60;;
19301;SDS011;9785;59.362;12.152;2022-11-18T04:52:59;0.37;;;0.37;;
19301;SDS011;9785;59.362;12.152;2022-11-18T04:55:28;0.13;;;0.13;;
19301;SDS011;9785;59.362;12.152;2022-11-18T04:57:56;0.27;;;0.27;;
19301;SDS011;9785;59.362;12.152;2022-11-18T05:00:25;0.30;;;0.30;;
19301;SDS011;9785;59.362;12.152;2022-11-18T05:02:53;0.20;;;0.20;;
19301;SDS011;9785;59.362;12.152;2022-11-18T05:05:22;0.20;;;0.20;;
19301;SDS011;9785;59.362;12.152;2022-11-18T05:07:52;0.37;;;0.37;;
19301;SDS011;9785;59.362;12.152;2022-11-18T05:10:20;0.20;;;0.20;;
19301;SDS011;9785;59.362;12.152;2022-11-18T05:12:49;0.30;;;0.30;;
19301;SDS011;9785;59.362;12.152;2022-11-18T05:15:18;0.47;;;0.47;;
19301;SDS011;9785;59.362;12.152;2022-11-18T05:17:49;0.40;;;0.40;;
19301;SDS011;9785;59.362;12.152;2022-11-18T05:20:18;0.60;;;0.30;;
19301;SDS011;9785;59.362;12.152;2022-11-18T05:22:46;0.30;;;0.30;;
19301;SDS011;9785;59.362;12.152;2022-11-18T05:25:16;0.30;;;0.30;;
19301;SDS011;9785;59.362;12.152;2022-11-18T05:27:45;0.27;;;0.27;;
19301;SDS011;9785;59.362;12.152;2022-11-18T05:30:14;0.63;;;0.40;;
19301;SDS011;9785;59.362;12.152;2022-11-18T05:32:42;0.47;;;0.47;;
19301;SDS011;9785;59.362;12.152;2022-11-18T05:35:11;0.37;;;0.37;;
19301;SDS011;9785;59.362;12.152;2022-11-18T05:37:39;0.43;;;0.43;;
19301;SDS011;9785;59.362;12.152;2022-11-18T05:40:08;0.77;;;0.70;;
19301;SDS011;9785;59.362;12.152;2022-11-18T05:42:38;0.90;;;0.40;;
19301;SDS011;9785;59.362;12.152;2022-11-18T05:45:24;1.70;;;0.40;;
19301;SDS011;9785;59.362;12.152;2022-11-18T05:47:53;0.70;;;0.70;;
19301;SDS011;9785;59.362;12.152;2022-11-18T05:50:30;0.40;;;0.40;;
19301;SDS011;9785;59.362;12.152;2022-11-18T05:52:59;0.60;;;0.60;;
19301;SDS011;9785;59.362;12.152;2022-11-18T05:55:28;0.50;;;0.50;;
19301;SDS011;9785;59.362;12.152;2022-11-18T05:58:00;0.60;;;0.60;;
19301;SDS011;9785;59.362;12.152;2022-11-18T06:00:28;0.50;;;0.50;;
19301;SDS011;9785;59.362;12.152;2022-11-18T06:02:58;0.73;;;0.60;;
19301;SDS011;9785;59.362;12.152;2022-11-18T06:05:30;0.40;;;0.40;;
19301;SDS011;9785;59.362;12.152;2022-11-18T06:07:58;0.50;;;0.50;;
19301;SDS011;9785;59.362;12.152;2022-11-18T06:10:28;0.60;;;0.60;;
19301;SDS011;9785;59.362;12.152;2022-11-18T06:13:00;0.50;;;0.50;;
19301;SDS011;9785;59.362;12.152;2022-11-18T06:15:31;0.50;;;0.50;;
19301;SDS011;9785;59.362;12.152;2022-11-18T06:18:00;0.80;;;0.80;;
19301;SDS011;9785;59.362;12.152;2022-11-18T06:20:30;0.63;;;0.63;;
19301;SDS011;9785;59.362;12.152;2022-11-18T06:23:01;0.40;;;0.40;;
19301;SDS011;9785;59.362;12.152;2022-11-18T06:25:29;0.50;;;0.50;;
19301;SDS011;9785;59.362;12.152;2022-11-18T06:28:02;0.63;;;0.63;;
19301;SDS011;9785;59.362;12.152;2022-11-18T06:30:31;0.43;;;0.43;;
19301;SDS011;9785;59.362;12.152;2022-11-18T06:32:59;0.70;;;0.70;;
19301;SDS011;9785;59.362;12.152;2022-11-18T06:35:28;0.70;;;0.70;;
19301;SDS011;9785;59.362;12.152;2022-11-18T06:37:56;2.77;;;0.50;;
19301;SDS011;9785;59.362;12.152;2022-11-18T06:40:25;0.67;;;0.67;;
19301;SDS011;9785;59.362;12.152;2022-11-18T06:43:05;0.70;;;0.70;;
19301;SDS011;9785;59.362;12.152;2022-11-18T06:45:51;0.50;;;0.50;;
19301;SDS011;9785;59.362;12.152;2022-11-18T06:48:37;0.67;;;0.67;;
19301;SDS011;9785;59.362;12.152;2022-11-18T06:51:06;0.70;;;0.70;;
19301;SDS011;9785;59.362;12.152;2022-11-18T06:53:34;0.50;;;0.50;;
19301;SDS011;9785;59.362;12.152;2022-11-18T06:56:03;1.20;;;0.60;;
19301;SDS011;9785;59.362;12.152;2022-11-18T06:58:33;0.60;;;0.60;;
19301;SDS011;9785;59.362;12.152;2022-11-18T07:01:07;1.13;;;0.60;;
19301;SDS011;9785;59.362;12.152;2022-11-18T07:03:37;0.60;;;0.60;;
19301;SDS011;9785;59.362;12.152;2022-11-18T07:06:06;0.70;;;0.60;;
19301;SDS011;9785;59.362;12.152;2022-11-18T07:08:36;0.70;;;0.70;;
19301;SDS011;9785;59.362;12.152;2022-11-18T07:11:05;0.80;;;0.80;;
19301;SDS011;9785;59.362;12.152;2022-11-18T07:13:35;0.70;;;0.70;;
19301;SDS011;9785;59.362;12.152;2022-11-18T07:16:10;0.60;;;0.60;;
19301;SDS011;9785;59.362;12.152;2022-11-18T07:18:39;0.60;;;0.60;;
19301;SDS011;9785;59.362;12.152;2022-11-18T07:21:09;0.50;;;0.47;;
19301;SDS011;9785;59.362;12.152;2022-11-18T07:23:37;0.70;;;0.70;;
19301;SDS011;9785;59.362;12.152;2022-11-18T07:26:06;0.50;;;0.50;;
19301;SDS011;9785;59.362;12.152;2022-11-18T07:28:36;0.80;;;0.80;;
19301;SDS011;9785;59.362;12.152;2022-11-18T07:31:05;0.50;;;0.50;;
19301;SDS011;9785;59.362;12.152;2022-11-18T07:33:34;0.60;;;0.60;;
19301;SDS011;9785;59.362;12.152;2022-11-18T07:36:04;1.47;;;0.70;;
19301;SDS011;9785;59.362;12.152;2022-11-18T07:38:33;0.60;;;0.60;;
19301;SDS011;9785;59.362;12.152;2022-11-18T07:41:02;0.63;;;0.63;;
19301;SDS011;9785;59.362;12.152;2022-11-18T07:43:31;0.60;;;0.60;;
19301;SDS011;9785;59.362;12.152;2022-11-18T07:46:08;0.60;;;0.60;;
19301;SDS011;9785;59.362;12.152;2022-11-18T07:48:37;0.60;;;0.60;;
19301;SDS011;9785;59.362;12.152;2022-11-18T07:51:06;0.63;;;0.63;;
19301;SDS011;9785;59.362;12.152;2022-11-18T07:53:34;0.60;;;0.60;;
19301;SDS011;9785;59.362;12.152;2022-11-18T07:56:03;2.93;;;0.80;;
19301;SDS011;9785;59.362;12.152;2022-11-18T07:58:32;0.70;;;0.70;;
19301;SDS011;9785;59.362;12.152;2022-11-18T08:01:05;0.60;;;0.60;;
19301;SDS011;9785;59.362;12.152;2022-11-18T08:03:36;0.70;;;0.70;;
19301;SDS011;9785;59.362;12.152;2022-11-18T08:06:05;2.23;;;0.80;;
19301;SDS011;9785;59.362;12.152;2022-11-18T08:08:34;0.80;;;0.80;;
19301;SDS011;9785;59.362;12.152;2022-11-18T08:11:04;0.70;;;0.70;;
19301;SDS011;9785;59.362;12.152;2022-11-18T08:13:33;1.67;;;0.70;;
19301;SDS011;9785;59.362;12.152;2022-11-18T08:16:01;0.60;;;0.60;;
19301;SDS011;9785;59.362;12.152;2022-11-18T08:18:30;1.70;;;1.10;;
19301;SDS011;9785;59.362;12.152;2022-11-18T08:21:01;0.80;;;0.80;;
19301;SDS011;9785;59.362;12.152;2022-11-18T08:23:30;0.80;;;0.80;;
19301;SDS011;9785;59.362;12.152;2022-11-18T08:26:07;0.80;;;0.80;;
19301;SDS011;9785;59.362;12.152;2022-11-18T08:28:36;0.70;;;0.70;;
19301;SDS011;9785;59.362;12.152;2022-11-18T08:31:09;0.80;;;0.80;;
19301;SDS011;9785;59.362;12.152;2022-11-18T08:33:37;0.70;;;0.70;;
19301;SDS011;9785;59.362;12.152;2022-11-18T08:36:09;0.63;;;0.63;;
19301;SDS011;9785;59.362;12.152;2022-11-18T08:38:37;0.80;;;0.80;;
19301;SDS011;9785;59.362;12.152;2022-11-18T08:41:06;1.27;;;0.87;;
19301;SDS011;9785;59.362;12.152;2022-11-18T08:43:35;0.60;;;0.60;;
19301;SDS011;9785;59.362;12.152;2022-11-18T08:46:04;0.77;;;0.77;;
19301;SDS011;9785;59.362;12.152;2022-11-18T08:48:32;0.77;;;0.77;;
19301;SDS011;9785;59.362;12.152;2022-11-18T08:51:01;1.00;;;1.00;;
19301;SDS011;9785;59.362;12.152;2022-11-18T08:53:31;2.13;;;0.87;;
19301;SDS011;9785;59.362;12.152;2022-11-18T08:56:00;0.87;;;0.87;;
19301;SDS011;9785;59.362;12.152;2022-11-18T08:58:29;0.80;;;0.80;;
19301;SDS011;9785;59.362;12.152;2022-11-18T09:00:57;0.80;;;0.80;;
19301;SDS011;9785;59.362;12.152;2022-11-18T09:03:26;1.77;;;0.80;;
19301;SDS011;9785;59.362;12.152;2022-11-18T09:06:03;0.80;;;0.80;;
19301;SDS011;9785;59.362;12.152;2022-11-18T09:08:33;1.00;;;1.00;;
19301;SDS011;9785;59.362;12.152;2022-11-18T09:11:05;1.57;;;1.00;;
19301;SDS011;9785;59.362;12.152;2022-11-18T09:13:34;1.37;;;1.27;;
19301;SDS011;9785;59.362;12.152;2022-11-18T09:16:23;1.57;;;1.47;;
19301;SDS011;9785;59.362;12.152;2022-11-18T09:18:54;1.57;;;1.30;;
19301;SDS011;9785;59.362;12.152;2022-11-18T09:21:23;4.00;;;2.83;;
19301;SDS011;9785;59.362;12.152;2022-11-18T09:23:53;2.57;;;1.93;;
19301;SDS011;9785;59.362;12.152;2022-11-18T09:26:22;2.30;;;1.30;;
19301;SDS011;9785;59.362;12.152;2022-11-18T09:28:53;0.80;;;0.80;;
19301;SDS011;9785;59.362;12.152;2022-11-18T09:31:22;1.00;;;1.00;;
19301;SDS011;9785;59.362;12.152;2022-11-18T09:33:50;1.03;;;1.03;;
19301;SDS011;9785;59.362;12.152;2022-11-18T09:36:19;1.90;;;1.17;;
19301;SDS011;9785;59.362;12.152;2022-11-18T09:38:48;1.67;;;1.00;;
19301;SDS011;9785;59.362;12.152;2022-11-18T09:41:29;1.20;;;1.10;;
19301;SDS011;9785;59.362;12.152;2022-11-18T09:44:05;0.90;;;0.90;;
19301;SDS011;9785;59.362;12.152;2022-11-18T09:46:37;0.90;;;0.90;;
19301;SDS011;9785;59.362;12.152;2022-11-18T09:49:10;0.90;;;0.80;;
19301;SDS011;9785;59.362;12.152;2022-11-18T09:51:42;0.80;;;0.80;;
19301;SDS011;9785;59.362;12.152;2022-11-18T09:54:13;0.80;;;0.80;;
19301;SDS011;9785;59.362;12.152;2022-11-18T09:56:47;0.90;;;0.90;;
19301;SDS011;9785;59.362;12.152;2022-11-18T09:59:18;1.53;;;0.90;;
19301;SDS011;9785;59.362;12.152;2022-11-18T10:01:47;1.53;;;0.77;;
19301;SDS011;9785;59.362;12.152;2022-11-18T10:04:16;1.03;;;1.03;;
19301;SDS011;9785;59.362;12.152;2022-11-18T10:06:45;1.30;;;1.20;;
19301;SDS011;9785;59.362;12.152;2022-11-18T10:09:23;1.00;;;1.00;;
19301;SDS011;9785;59.362;12.152;2022-11-18T10:12:03;1.90;;;1.07;;
19301;SDS011;9785;59.362;12.152;2022-11-18T10:14:40;0.80;;;0.80;;
19301;SDS011;9785;59.362;12.152;2022-11-18T10:17:21;1.10;;;1.00;;
19301;SDS011;9785;59.362;12.152;2022-11-18T10:19:53;1.30;;;1.20;;
19301;SDS011;9785;59.362;12.152;2022-11-18T10:22:25;0.90;;;0.90;;
19301;SDS011;9785;59.362;12.152;2022-11-18T10:24:56;0.80;;;0.80;;
19301;SDS011;9785;59.362;12.152;2022-11-18T10:27:32;0.80;;;0.80;;
19301;SDS011;9785;59.362;12.152;2022-11-18T10:30:01;0.77;;;0.77;;
19301;SDS011;9785;59.362;12.152;2022-11-18T10:32:29;0.80;;;0.80;;
19301;SDS011;9785;59.362;12.152;2022-11-18T10:34:58;0.60;;;0.60;;
19301;SDS011;9785;59.362;12.152;2022-11-18T10:37:27;0.87;;;0.87;;
19301;SDS011;9785;59.362;12.152;2022-11-18T10:40:22;0.80;;;0.80;;
19301;SDS011;9785;59.362;12.152;2022-11-18T10:42:52;0.70;;;0.70;;
19301;SDS011;9785;59.362;12.152;2022-11-18T10:45:23;0.83;;;0.83;;
19301;SDS011;9785;59.362;12.152;2022-11-18T10:47:59;0.70;;;0.70;;
19301;SDS011;9785;59.362;12.152;2022-11-18T10:50:29;0.70;;;0.70;;
19301;SDS011;9785;59.362;12.152;2022-11-18T10:52:58;1.00;;;0.90;;
19301;SDS011;9785;59.362;12.152;2022-11-18T10:55:27;1.43;;;0.90;;
19301;SDS011;9785;59.362;12.152;2022-11-18T10:57:58;1.00;;;1.00;;
19301;SDS011;9785;59.362;12.152;2022-11-18T11:03:28;0.73;;;0.73;;
19301;SDS011;9785;59.362;12.152;2022-11-18T11:08:47;0.80;;;0.80;;
19301;SDS011;9785;59.362;12.152;2022-11-18T11:11:20;0.67;;;0.67;;
19301;SDS011;9785;59.362;12.152;2022-11-18T11:13:54;0.60;;;0.60;;
19301;SDS011;9785;59.362;12.152;2022-11-18T11:16:23;0.83;;;0.83;;
19301;SDS011;9785;59.362;12.152;2022-11-18T11:18:54;1.10;;;0.80;;
19301;SDS011;9785;59.362;12.152;2022-11-18T11:21:24;0.97;;;0.90;;
19301;SDS011;9785;59.362;12.152;2022-11-18T11:23:53;1.60;;;0.90;;
19301;SDS011;9785;59.362;12.152;2022-11-18T11:26:24;0.83;;;0.83;;
19301;SDS011;9785;59.362;12.152;2022-11-18T11:29:20;2.10;;;0.87;;
19301;SDS011;9785;59.362;12.152;2022-11-18T11:31:54;0.70;;;0.70;;
19301;SDS011;9785;59.362;12.152;2022-11-18T11:34:27;0.87;;;0.87;;
19301;SDS011;9785;59.362;12.152;2022-11-18T11:37:00;0.70;;;0.70;;
19301;SDS011;9785;59.362;12.152;2022-11-18T11:39:45;1.80;;;1.00;;
19301;SDS011;9785;59.362;12.152;2022-11-18T11:42:20;0.80;;;0.80;;
19301;SDS011;9785;59.362;12.152;2022-11-18T11:45:02;0.70;;;0.70;;
19301;SDS011;9785;59.362;12.152;2022-11-18T11:47:36;0.70;;;0.70;;
19301;SDS011;9785;59.362;12.152;2022-11-18T11:50:17;0.70;;;0.70;;
19301;SDS011;9785;59.362;12.152;2022-11-18T11:52:49;0.90;;;0.80;;
19301;SDS011;9785;59.362;12.152;2022-11-18T11:55:21;0.70;;;0.70;;
19301;SDS011;9785;59.362;12.152;2022-11-18T11:57:55;0.83;;;0.70;;
19301;SDS011;9785;59.362;12.152;2022-11-18T12:00:31;1.00;;;1.00;;
19301;SDS011;9785;59.362;12.152;2022-11-18T12:03:06;2.43;;;0.60;;
19301;SDS011;9785;59.362;12.152;2022-11-18T12:05:39;2.10;;;0.67;;
19301;SDS011;9785;59.362;12.152;2022-11-18T12:08:09;0.80;;;0.80;;
19301;SDS011;9785;59.362;12.152;2022-11-18T12:10:41;1.00;;;1.00;;
19301;SDS011;9785;59.362;12.152;2022-11-18T12:13:19;0.93;;;0.93;;
19301;SDS011;9785;59.362;12.152;2022-11-18T12:15:53;0.77;;;0.73;;
19301;SDS011;9785;59.362;12.152;2022-11-18T12:18:23;0.73;;;0.73;;
19301;SDS011;9785;59.362;12.152;2022-11-18T12:20:54;0.90;;;0.90;;
19301;SDS011;9785;59.362;12.152;2022-11-18T12:23:23;1.00;;;0.90;;
19301;SDS011;9785;59.362;12.152;2022-11-18T12:25:55;0.80;;;0.80;;
19301;SDS011;9785;59.362;12.152;2022-11-18T12:28:24;0.90;;;0.90;;
19301;SDS011;9785;59.362;12.152;2022-11-18T12:33:42;1.00;;;0.90;;
19301;SDS011;9785;59.362;12.152;2022-11-18T12:36:23;0.73;;;0.73;;
19301;SDS011;9785;59.362;12.152;2022-11-18T12:38:52;0.70;;;0.70;;
19301;SDS011;9785;59.362;12.152;2022-11-18T12:44:25;0.90;;;0.90;;
19301;SDS011;9785;59.362;12.152;2022-11-18T12:46:54;0.70;;;0.70;;
19301;SDS011;9785;59.362;12.152;2022-11-18T12:55:14;1.07;;;0.80;;
19301;SDS011;9785;59.362;12.152;2022-11-18T12:57:43;0.50;;;0.50;;
19301;SDS011;9785;59.362;12.152;2022-11-18T13:00:15;0.63;;;0.60;;
19301;SDS011;9785;59.362;12.152;2022-11-18T13:02:49;0.90;;;0.90;;
19301;SDS011;9785;59.362;12.152;2022-11-18T13:05:18;1.07;;;0.80;;
19301;SDS011;9785;59.362;12.152;2022-11-18T13:07:48;0.60;;;0.60;;
19301;SDS011;9785;59.362;12.152;2022-11-18T13:10:38;1.03;;;0.70;;
19301;SDS011;9785;59.362;12.152;2022-11-18T13:13:10;0.70;;;0.70;;
19301;SDS011;9785;59.362;12.152;2022-11-18T13:15:41;0.70;;;0.70;;
19301;SDS011;9785;59.362;12.152;2022-11-18T13:18:27;0.70;;;0.70;;
19301;SDS011;9785;59.362;12.152;2022-11-18T13:20:56;0.60;;;0.60;;
19301;SDS011;9785;59.362;12.152;2022-11-18T13:23:45;0.70;;;0.70;;
19301;SDS011;9785;59.362;12.152;2022-11-18T13:26:27;1.13;;;0.50;;
19301;SDS011;9785;59.362;12.152;2022-11-18T13:31:44;0.60;;;0.60;;
19301;SDS011;9785;59.362;12.152;2022-11-18T13:34:17;1.33;;;0.60;;
19301;SDS011;9785;59.362;12.152;2022-11-18T13:36:46;0.67;;;0.67;;
19301;SDS011;9785;59.362;12.152;2022-11-18T13:39:17;0.50;;;0.50;;
19301;SDS011;9785;59.362;12.152;2022-11-18T13:41:49;0.50;;;0.50;;
19301;SDS011;9785;59.362;12.152;2022-11-18T13:44:25;0.43;;;0.43;;
19301;SDS011;9785;59.362;12.152;2022-11-18T13:46:57;0.70;;;0.70;;
19301;SDS011;9785;59.362;12.152;2022-11-18T13:49:31;0.67;;;0.60;;
19301;SDS011;9785;59.362;12.152;2022-11-18T13:52:03;0.53;;;0.53;;
19301;SDS011;9785;59.362;12.152;2022-11-18T13:54:32;0.60;;;0.60;;
19301;SDS011;9785;59.362;12.152;2022-11-18T13:57:02;0.53;;;0.53;;
19301;SDS011;9785;59.362;12.152;2022-11-18T13:59:31;0.60;;;0.60;;
19301;SDS011;9785;59.362;12.152;2022-11-18T14:02:00;0.70;;;0.70;;
19301;SDS011;9785;59.362;12.152;2022-11-18T14:04:29;0.50;;;0.50;;
19301;SDS011;9785;59.362;12.152;2022-11-18T14:07:15;1.27;;;0.70;;
19301;SDS011;9785;59.362;12.152;2022-11-18T14:09:53;0.43;;;0.43;;
19301;SDS011;9785;59.362;12.152;2022-11-18T14:12:24;0.50;;;0.50;;
19301;SDS011;9785;59.362;12.152;2022-11-18T14:17:38;0.47;;;0.47;;
19301;SDS011;9785;59.362;12.152;2022-11-18T14:20:16;0.47;;;0.47;;
19301;SDS011;9785;59.362;12.152;2022-11-18T14:22:45;0.60;;;0.60;;
19301;SDS011;9785;59.362;12.152;2022-11-18T14:25:16;0.57;;;0.57;;
19301;SDS011;9785;59.362;12.152;2022-11-18T14:27:47;0.50;;;0.50;;
19301;SDS011;9785;59.362;12.152;2022-11-18T14:33:09;0.50;;;0.50;;
19301;SDS011;9785;59.362;12.152;2022-11-18T14:35:37;0.60;;;0.60;;
19301;SDS011;9785;59.362;12.152;2022-11-18T14:38:10;1.17;;;0.70;;
19301;SDS011;9785;59.362;12.152;2022-11-18T14:41:00;0.50;;;0.50;;
19301;SDS011;9785;59.362;12.152;2022-11-18T14:43:30;0.50;;;0.50;;
19301;SDS011;9785;59.362;12.152;2022-11-18T14:46:00;0.50;;;0.50;;
19301;SDS011;9785;59.362;12.152;2022-11-18T14:48:29;0.40;;;0.40;;
19301;SDS011;9785;59.362;12.152;2022-11-18T14:50:58;0.50;;;0.50;;
19301;SDS011;9785;59.362;12.152;2022-11-18T14:53:27;0.40;;;0.40;;
19301;SDS011;9785;59.362;12.152;2022-11-18T14:55:58;0.70;;;0.70;;
19301;SDS011;9785;59.362;12.152;2022-11-18T14:58:26;0.70;;;0.70;;
19301;SDS011;9785;59.362;12.152;2022-11-18T15:00:56;0.60;;;0.60;;
19301;SDS011;9785;59.362;12.152;2022-11-18T15:03:25;0.50;;;0.50;;
19301;SDS011;9785;59.362;12.152;2022-11-18T15:05:53;0.93;;;0.70;;
19301;SDS011;9785;59.362;12.152;2022-11-18T15:08:22;0.60;;;0.60;;
19301;SDS011;9785;59.362;12.152;2022-11-18T15:10:51;0.60;;;0.60;;
19301;SDS011;9785;59.362;12.152;2022-11-18T15:13:19;0.83;;;0.60;;
19301;SDS011;9785;59.362;12.152;2022-11-18T15:15:48;0.50;;;0.50;;
19301;SDS011;9785;59.362;12.152;2022-11-18T15:18:18;0.70;;;0.70;;
19301;SDS011;9785;59.362;12.152;2022-11-18T15:20:50;0.50;;;0.50;;
19301;SDS011;9785;59.362;12.152;2022-11-18T15:23:19;0.47;;;0.47;;
19301;SDS011;9785;59.362;12.152;2022-11-18T15:25:54;0.43;;;0.43;;
19301;SDS011;9785;59.362;12.152;2022-11-18T15:28:23;0.30;;;0.30;;
19301;SDS011;9785;59.362;12.152;2022-11-18T15:30:51;0.50;;;0.50;;
19301;SDS011;9785;59.362;12.152;2022-11-18T15:33:21;0.60;;;0.60;;
19301;SDS011;9785;59.362;12.152;2022-11-18T15:35:50;0.50;;;0.50;;
19301;SDS011;9785;59.362;12.152;2022-11-18T15:38:21;0.50;;;0.50;;
19301;SDS011;9785;59.362;12.152;2022-11-18T15:40:49;0.37;;;0.37;;